sensor_id;sensor_type;location;lat;lon;timestamp;pressure;altitude;pressure_sealevel;temperature;humidity
46303;BME280;32029;51.358;5.628;2023-03-26T00:01:20;100525.56;;;10.22;100.00
46303;BME280;32029;51.358;5.628;2023-03-26T00:03:51;100510.22;;;10.13;100.00
46303;BME280;32029;51.358;5.628;2023-03-26T00:06:31;100520.72;;;10.24;100.00
46303;BME280;32029;51.358;5.628;2023-03-26T00:09:06;100511.84;;;10.22;100.00
46303;BME280;32029;51.358;5.628;2023-03-26T00:11:33;100505.59;;;10.14;100.00
46303;BME280;32029;51.358;5.628;2023-03-26T00:14:02;100520.06;;;10.22;100.00
46303;BME280;32029;51.358;5.628;2023-03-26T00:16:31;100512.47;;;10.24;100.00
46303;BME280;32029;51.358;5.628;2023-03-26T00:18:58;100484.91;;;10.11;100.00
46303;BME280;32029;51.358;5.628;2023-03-26T00:21:27;100508.72;;;10.25;100.00
46303;BME280;32029;51.358;5.628;2023-03-26T00:23:57;100507.50;;;10.28;100.00
46303;BME280;32029;51.358;5.628;2023-03-26T00:26:26;100496.41;;;10.21;100.00
46303;BME280;32029;51.358;5.628;2023-03-26T00:28:55;100502.84;;;10.28;100.00
46303;BME280;32029;51.358;5.628;2023-03-26T00:31:23;100494.63;;;10.28;100.00
46303;BME280;32029;51.358;5.628;2023-03-26T00:33:50;100465.72;;;10.11;100.00
46303;BME280;32029;51.358;5.628;2023-03-26T00:36:24;100440.13;;;10.04;100.00
46303;BME280;32029;51.358;5.628;2023-03-26T00:38:51;100489.69;;;10.39;100.00
46303;BME280;32029;51.358;5.628;2023-03-26T00:41:19;100484.84;;;10.41;100.00
46303;BME280;32029;51.358;5.628;2023-03-26T00:43:56;100455.09;;;10.23;100.00
46303;BME280;32029;51.358;5.628;2023-03-26T00:46:27;100460.38;;;10.24;100.00
46303;BME280;32029;51.358;5.628;2023-03-26T00:48:55;100480.78;;;10.37;100.00
46303;BME280;32029;51.358;5.628;2023-03-26T00:51:26;100468.25;;;10.27;100.00
46303;BME280;32029;51.358;5.628;2023-03-26T00:53:54;100472.94;;;10.34;100.00
46303;BME280;32029;51.358;5.628;2023-03-26T00:56:20;100473.38;;;10.30;100.00
46303;BME280;32029;51.358;5.628;2023-03-26T00:58:47;100451.22;;;10.17;100.00
46303;BME280;32029;51.358;5.628;2023-03-26T01:01:23;100461.94;;;10.27;100.00
46303;BME280;32029;51.358;5.628;2023-03-26T01:03:56;100464.47;;;10.28;100.00
46303;BME280;32029;51.358;5.628;2023-03-26T01:06:29;100394.22;;;9.91;100.00
46303;BME280;32029;51.358;5.628;2023-03-26T01:09:05;100446.31;;;10.27;100.00
46303;BME280;32029;51.358;5.628;2023-03-26T01:11:38;100415.91;;;10.07;100.00
46303;BME280;32029;51.358;5.628;2023-03-26T01:14:10;100442.91;;;10.25;100.00
46303;BME280;32029;51.358;5.628;2023-03-26T01:16:40;100436.56;;;10.25;100.00
46303;BME280;32029;51.358;5.628;2023-03-26T01:19:14;100403.91;;;10.09;100.00
46303;BME280;32029;51.358;5.628;2023-03-26T01:21:46;100425.53;;;10.18;100.00
46303;BME280;32029;51.358;5.628;2023-03-26T01:24:13;100422.00;;;10.24;100.00
46303;BME280;32029;51.358;5.628;2023-03-26T01:40:34;100353.28;;;9.90;100.00
46303;BME280;32029;51.358;5.628;2023-03-26T01:46:14;100365.84;;;9.99;100.00
46303;BME280;32029;51.358;5.628;2023-03-26T01:48:44;100403.19;;;10.21;100.00
46303;BME280;32029;51.358;5.628;2023-03-26T01:51:23;100403.19;;;10.21;100.00
46303;BME280;32029;51.358;5.628;2023-03-26T01:53:51;100367.16;;;10.03;100.00
46303;BME280;32029;51.358;5.628;2023-03-26T01:59:10;100379.34;;;10.22;100.00
46303;BME280;32029;51.358;5.628;2023-03-26T02:02:14;100363.25;;;10.12;100.00
46303;BME280;32029;51.358;5.628;2023-03-26T02:10:30;100368.88;;;10.25;100.00
46303;BME280;32029;51.358;5.628;2023-03-26T02:12:56;100331.78;;;10.08;100.00
46303;BME280;32029;51.358;5.628;2023-03-26T02:15:24;100357.34;;;10.30;100.00
46303;BME280;32029;51.358;5.628;2023-03-26T02:17:51;100293.72;;;9.98;100.00
46303;BME280;32029;51.358;5.628;2023-03-26T02:20:19;100296.75;;;10.03;100.00
46303;BME280;32029;51.358;5.628;2023-03-26T02:22:49;100331.78;;;10.29;100.00
46303;BME280;32029;51.358;5.628;2023-03-26T02:25:18;100345.19;;;10.39;100.00
46303;BME280;32029;51.358;5.628;2023-03-26T02:27:46;100338.00;;;10.38;100.00
46303;BME280;32029;51.358;5.628;2023-03-26T02:30:16;100319.50;;;10.25;100.00
46303;BME280;32029;51.358;5.628;2023-03-26T02:32:46;100339.22;;;10.36;100.00
46303;BME280;32029;51.358;5.628;2023-03-26T02:35:20;100320.19;;;10.27;100.00
46303;BME280;32029;51.358;5.628;2023-03-26T02:37:50;100324.47;;;10.37;100.00
46303;BME280;32029;51.358;5.628;2023-03-26T02:40:18;100328.72;;;10.39;100.00
46303;BME280;32029;51.358;5.628;2023-03-26T02:42:48;100324.75;;;10.42;100.00
46303;BME280;32029;51.358;5.628;2023-03-26T02:45:16;100312.72;;;10.43;100.00
46303;BME280;32029;51.358;5.628;2023-03-26T02:47:43;100255.03;;;10.08;100.00
46303;BME280;32029;51.358;5.628;2023-03-26T02:50:11;100287.06;;;10.29;100.00
46303;BME280;32029;51.358;5.628;2023-03-26T02:52:39;100235.59;;;10.03;100.00
46303;BME280;32029;51.358;5.628;2023-03-26T02:55:06;100302.66;;;10.50;100.00
46303;BME280;32029;51.358;5.628;2023-03-26T02:57:33;100298.84;;;10.51;100.00
46303;BME280;32029;51.358;5.628;2023-03-26T03:00:00;100299.47;;;10.53;100.00
46303;BME280;32029;51.358;5.628;2023-03-26T03:02:28;100291.06;;;10.54;100.00
46303;BME280;32029;51.358;5.628;2023-03-26T03:04:56;100268.44;;;10.46;100.00
46303;BME280;32029;51.358;5.628;2023-03-26T03:07:26;100273.75;;;10.54;100.00
46303;BME280;32029;51.358;5.628;2023-03-26T03:09:54;100273.56;;;10.55;100.00
46303;BME280;32029;51.358;5.628;2023-03-26T03:12:21;100248.13;;;10.40;100.00
46303;BME280;32029;51.358;5.628;2023-03-26T03:14:47;100275.91;;;10.59;100.00
46303;BME280;32029;51.358;5.628;2023-03-26T03:17:14;100246.69;;;10.44;100.00
46303;BME280;32029;51.358;5.628;2023-03-26T03:19:41;100249.06;;;10.54;100.00
46303;BME280;32029;51.358;5.628;2023-03-26T03:22:09;100266.00;;;10.64;100.00
46303;BME280;32029;51.358;5.628;2023-03-26T03:24:36;100253.56;;;10.62;100.00
46303;BME280;32029;51.358;5.628;2023-03-26T03:27:04;100221.97;;;10.38;100.00
46303;BME280;32029;51.358;5.628;2023-03-26T03:29:31;100241.78;;;10.40;100.00
46303;BME280;32029;51.358;5.628;2023-03-26T03:31:58;100232.03;;;10.30;100.00
46303;BME280;32029;51.358;5.628;2023-03-26T03:34:26;100233.34;;;10.35;100.00
46303;BME280;32029;51.358;5.628;2023-03-26T03:36:52;100170.81;;;10.02;100.00
46303;BME280;32029;51.358;5.628;2023-03-26T03:39:19;100182.66;;;10.02;100.00
46303;BME280;32029;51.358;5.628;2023-03-26T03:41:49;100184.97;;;10.05;100.00
46303;BME280;32029;51.358;5.628;2023-03-26T03:44:15;100161.22;;;9.85;100.00
46303;BME280;32029;51.358;5.628;2023-03-26T03:46:42;100214.00;;;10.21;100.00
46303;BME280;32029;51.358;5.628;2023-03-26T03:49:09;100185.03;;;10.12;100.00
46303;BME280;32029;51.358;5.628;2023-03-26T03:51:36;100176.66;;;10.20;100.00
46303;BME280;32029;51.358;5.628;2023-03-26T03:54:02;100214.03;;;10.49;100.00
46303;BME280;32029;51.358;5.628;2023-03-26T03:56:29;100208.38;;;10.58;100.00
46303;BME280;32029;51.358;5.628;2023-03-26T03:58:56;100206.50;;;10.65;100.00
46303;BME280;32029;51.358;5.628;2023-03-26T04:01:24;100199.97;;;10.72;100.00
46303;BME280;32029;51.358;5.628;2023-03-26T04:03:50;100201.09;;;10.78;100.00
46303;BME280;32029;51.358;5.628;2023-03-26T04:06:18;100191.19;;;10.84;100.00
46303;BME280;32029;51.358;5.628;2023-03-26T04:08:45;100190.56;;;10.88;100.00
46303;BME280;32029;51.358;5.628;2023-03-26T04:11:13;100184.66;;;10.91;100.00
46303;BME280;32029;51.358;5.628;2023-03-26T04:13:40;100183.00;;;10.97;100.00
46303;BME280;32029;51.358;5.628;2023-03-26T04:16:08;100125.06;;;10.72;100.00
46303;BME280;32029;51.358;5.628;2023-03-26T04:18:36;100110.25;;;10.60;100.00
46303;BME280;32029;51.358;5.628;2023-03-26T04:21:05;100140.75;;;10.85;100.00
46303;BME280;32029;51.358;5.628;2023-03-26T04:23:34;100162.78;;;11.04;100.00
46303;BME280;32029;51.358;5.628;2023-03-26T04:26:04;100091.47;;;10.63;100.00
46303;BME280;32029;51.358;5.628;2023-03-26T04:28:53;100161.50;;;11.07;100.00
46303;BME280;32029;51.358;5.628;2023-03-26T04:31:27;100150.50;;;11.07;100.00
46303;BME280;32029;51.358;5.628;2023-03-26T04:34:19;100139.53;;;11.07;100.00
46303;BME280;32029;51.358;5.628;2023-03-26T04:36:52;100122.63;;;10.97;100.00
46303;BME280;32029;51.358;5.628;2023-03-26T04:39:23;100092.16;;;10.78;100.00
46303;BME280;32029;51.358;5.628;2023-03-26T04:41:55;100126.84;;;11.06;100.00
46303;BME280;32029;51.358;5.628;2023-03-26T04:44:24;100096.41;;;10.88;100.00
46303;BME280;32029;51.358;5.628;2023-03-26T04:46:51;100111.63;;;11.03;100.00
46303;BME280;32029;51.358;5.628;2023-03-26T04:49:18;100102.97;;;10.93;100.00
46303;BME280;32029;51.358;5.628;2023-03-26T04:51:45;100102.34;;;10.98;100.00
46303;BME280;32029;51.358;5.628;2023-03-26T04:54:15;100004.66;;;10.36;100.00
46303;BME280;32029;51.358;5.628;2023-03-26T04:56:51;100096.81;;;10.91;100.00
46303;BME280;32029;51.358;5.628;2023-03-26T04:59:25;100099.97;;;10.88;100.00
46303;BME280;32029;51.358;5.628;2023-03-26T05:01:56;100076.72;;;10.71;100.00
46303;BME280;32029;51.358;5.628;2023-03-26T05:04:25;100092.38;;;10.84;100.00
46303;BME280;32029;51.358;5.628;2023-03-26T05:06:56;100044.81;;;10.57;100.00
46303;BME280;32029;51.358;5.628;2023-03-26T05:09:24;100088.78;;;10.83;100.00
46303;BME280;32029;51.358;5.628;2023-03-26T05:11:53;100066.19;;;10.74;100.00
46303;BME280;32029;51.358;5.628;2023-03-26T05:14:20;100084.78;;;10.86;100.00
46303;BME280;32029;51.358;5.628;2023-03-26T05:16:49;100083.72;;;10.87;100.00
46303;BME280;32029;51.358;5.628;2023-03-26T05:19:18;100039.75;;;10.60;100.00
46303;BME280;32029;51.358;5.628;2023-03-26T05:21:46;99997.75;;;10.46;100.00
46303;BME280;32029;51.358;5.628;2023-03-26T05:24:13;100065.19;;;10.89;100.00
46303;BME280;32029;51.358;5.628;2023-03-26T05:26:39;100060.31;;;10.91;100.00
46303;BME280;32029;51.358;5.628;2023-03-26T05:29:07;100063.72;;;10.93;100.00
46303;BME280;32029;51.358;5.628;2023-03-26T05:31:34;100029.03;;;10.78;100.00
46303;BME280;32029;51.358;5.628;2023-03-26T05:34:01;100004.34;;;10.65;100.00
46303;BME280;32029;51.358;5.628;2023-03-26T05:36:28;100043.03;;;10.97;100.00
46303;BME280;32029;51.358;5.628;2023-03-26T05:38:55;100025.03;;;10.88;100.00
46303;BME280;32029;51.358;5.628;2023-03-26T05:41:21;100008.56;;;10.88;100.00
46303;BME280;32029;51.358;5.628;2023-03-26T05:43:48;99982.38;;;10.78;100.00
46303;BME280;32029;51.358;5.628;2023-03-26T05:46:15;99990.41;;;10.87;100.00
46303;BME280;32029;51.358;5.628;2023-03-26T05:48:42;99892.84;;;10.31;100.00
46303;BME280;32029;51.358;5.628;2023-03-26T05:51:09;99980.72;;;10.91;100.00
46303;BME280;32029;51.358;5.628;2023-03-26T05:53:37;99998.47;;;11.01;100.00
46303;BME280;32029;51.358;5.628;2023-03-26T05:56:04;100003.75;;;11.10;100.00
46303;BME280;32029;51.358;5.628;2023-03-26T05:58:32;99963.38;;;10.84;100.00
46303;BME280;32029;51.358;5.628;2023-03-26T06:01:05;100000.78;;;11.11;100.00
46303;BME280;32029;51.358;5.628;2023-03-26T06:03:38;99993.59;;;11.10;100.00
46303;BME280;32029;51.358;5.628;2023-03-26T06:06:07;99977.34;;;11.02;100.00
46303;BME280;32029;51.358;5.628;2023-03-26T06:08:34;99999.75;;;11.12;100.00
46303;BME280;32029;51.358;5.628;2023-03-26T06:11:04;99991.50;;;11.12;100.00
46303;BME280;32029;51.358;5.628;2023-03-26T06:13:33;99997.63;;;11.14;100.00
46303;BME280;32029;51.358;5.628;2023-03-26T06:16:00;99997.63;;;11.14;100.00
46303;BME280;32029;51.358;5.628;2023-03-26T06:18:26;99977.78;;;11.06;100.00
46303;BME280;32029;51.358;5.628;2023-03-26T06:20:53;99998.47;;;11.15;100.00
46303;BME280;32029;51.358;5.628;2023-03-26T06:23:20;99987.91;;;11.05;100.00
46303;BME280;32029;51.358;5.628;2023-03-26T06:25:48;99988.31;;;11.02;100.00
46303;BME280;32029;51.358;5.628;2023-03-26T06:28:15;99931.72;;;10.74;100.00
46303;BME280;32029;51.358;5.628;2023-03-26T06:30:42;99987.91;;;11.05;100.00
46303;BME280;32029;51.358;5.628;2023-03-26T06:33:09;99946.09;;;10.90;100.00
46303;BME280;32029;51.358;5.628;2023-03-26T06:35:36;99922.22;;;10.70;100.00
46303;BME280;32029;51.358;5.628;2023-03-26T06:38:03;99960.03;;;10.95;100.00
46303;BME280;32029;51.358;5.628;2023-03-26T06:40:31;99923.50;;;10.74;100.00
46303;BME280;32029;51.358;5.628;2023-03-26T06:42:58;99973.34;;;10.98;100.00
46303;BME280;32029;51.358;5.628;2023-03-26T06:45:27;99982.19;;;11.13;100.00
46303;BME280;32029;51.358;5.628;2023-03-26T06:47:54;99995.50;;;11.16;100.00
46303;BME280;32029;51.358;5.628;2023-03-26T06:50:20;99939.53;;;10.91;100.00
46303;BME280;32029;51.358;5.628;2023-03-26T06:52:47;99948.63;;;10.91;100.00
46303;BME280;32029;51.358;5.628;2023-03-26T06:55:14;99959.19;;;11.01;100.00
46303;BME280;32029;51.358;5.628;2023-03-26T06:57:40;99966.78;;;11.12;100.00
46303;BME280;32029;51.358;5.628;2023-03-26T07:00:11;99915.25;;;10.88;100.00
46303;BME280;32029;51.358;5.628;2023-03-26T07:02:39;99981.56;;;11.24;100.00
46303;BME280;32029;51.358;5.628;2023-03-26T07:05:05;99964.25;;;11.17;100.00
46303;BME280;32029;51.358;5.628;2023-03-26T07:07:32;99961.09;;;11.20;100.00
46303;BME280;32029;51.358;5.628;2023-03-26T07:09:59;99960.44;;;11.18;100.00
46303;BME280;32029;51.358;5.628;2023-03-26T07:12:26;99933.84;;;11.12;100.00
46303;BME280;32029;51.358;5.628;2023-03-26T07:14:52;99920.13;;;11.06;100.00
46303;BME280;32029;51.358;5.628;2023-03-26T07:17:19;99962.53;;;11.36;100.00
46303;BME280;32029;51.358;5.628;2023-03-26T07:19:46;99938.91;;;11.28;100.00
46303;BME280;32029;51.358;5.628;2023-03-26T07:22:20;99949.44;;;11.38;100.00
46303;BME280;32029;51.358;5.628;2023-03-26T07:24:48;99823.69;;;10.62;100.00
46303;BME280;32029;51.358;5.628;2023-03-26T07:28:28;99912.28;;;11.22;100.00
46303;BME280;32029;51.358;5.628;2023-03-26T07:30:24;99945.19;;;11.42;100.00
46303;BME280;32029;51.358;5.628;2023-03-26T07:33:10;99909.34;;;11.24;100.00
46303;BME280;32029;51.358;5.628;2023-03-26T07:35:40;99940.13;;;11.46;100.00
46303;BME280;32029;51.358;5.628;2023-03-26T07:41:24;99933.59;;;11.47;100.00
46303;BME280;32029;51.358;5.628;2023-03-26T07:46:31;99934.19;;;11.49;100.00
46303;BME280;32029;51.358;5.628;2023-03-26T07:49:03;99851.47;;;11.06;100.00
46303;BME280;32029;51.358;5.628;2023-03-26T07:51:31;99926.59;;;11.51;100.00
46303;BME280;32029;51.358;5.628;2023-03-26T07:53:58;99907.16;;;11.46;100.00
46303;BME280;32029;51.358;5.628;2023-03-26T07:56:33;99919.63;;;11.55;100.00
46303;BME280;32029;51.358;5.628;2023-03-26T07:59:21;99821.72;;;10.96;100.00
46303;BME280;32029;51.358;5.628;2023-03-26T08:01:57;99910.91;;;11.58;100.00
46303;BME280;32029;51.358;5.628;2023-03-26T08:04:43;99844.50;;;11.16;100.00
46303;BME280;32029;51.358;5.628;2023-03-26T08:12:40;99868.31;;;11.36;100.00
46303;BME280;32029;51.358;5.628;2023-03-26T08:15:31;99902.47;;;11.66;100.00
46303;BME280;32029;51.358;5.628;2023-03-26T08:20:57;99902.06;;;11.63;100.00
46303;BME280;32029;51.358;5.628;2023-03-26T08:23:41;99905.63;;;11.63;100.00
46303;BME280;32029;51.358;5.628;2023-03-26T08:26:15;99897.81;;;11.67;100.00
46303;BME280;32029;51.358;5.628;2023-03-26T08:28:52;99894.00;;;11.68;100.00
46303;BME280;32029;51.358;5.628;2023-03-26T08:31:33;99897.34;;;11.76;100.00
46303;BME280;32029;51.358;5.628;2023-03-26T08:34:01;99900.94;;;11.84;100.00
46303;BME280;32029;51.358;5.628;2023-03-26T08:36:28;99908.31;;;11.90;100.00
46303;BME280;32029;51.358;5.628;2023-03-26T08:38:55;99863.09;;;11.72;100.00
46303;BME280;32029;51.358;5.628;2023-03-26T08:47:17;99894.88;;;12.13;100.00
46303;BME280;32029;51.358;5.628;2023-03-26T08:52:48;99906.47;;;12.22;100.00
46303;BME280;32029;51.358;5.628;2023-03-26T08:55:39;99889.56;;;12.18;100.00
46303;BME280;32029;51.358;5.628;2023-03-26T08:58:48;99897.09;;;12.30;100.00
46303;BME280;32029;51.358;5.628;2023-03-26T09:01:45;99898.78;;;12.31;100.00
46303;BME280;32029;51.358;5.628;2023-03-26T09:07:44;99896.59;;;12.39;100.00
46303;BME280;32029;51.358;5.628;2023-03-26T09:10:29;99897.00;;;12.43;100.00
46303;BME280;32029;51.358;5.628;2023-03-26T09:13:18;99894.44;;;12.48;100.00
46303;BME280;32029;51.358;5.628;2023-03-26T09:24:29;99895.59;;;12.65;100.00
46303;BME280;32029;51.358;5.628;2023-03-26T09:32:55;99893.41;;;12.74;100.00
46303;BME280;32029;51.358;5.628;2023-03-26T09:39:02;99887.69;;;12.75;100.00
46303;BME280;32029;51.358;5.628;2023-03-26T09:41:43;99886.81;;;12.75;100.00
46303;BME280;32029;51.358;5.628;2023-03-26T09:50:07;99886.94;;;12.87;100.00
46303;BME280;32029;51.358;5.628;2023-03-26T09:52:46;99889.88;;;12.92;100.00
46303;BME280;32029;51.358;5.628;2023-03-26T10:06:35;99857.88;;;12.91;100.00
46303;BME280;32029;51.358;5.628;2023-03-26T10:12:24;99798.72;;;12.57;100.00
46303;BME280;32029;51.358;5.628;2023-03-26T10:26:15;99878.63;;;13.18;100.00
46303;BME280;32029;51.358;5.628;2023-03-26T10:29:07;99853.53;;;13.02;100.00
46303;BME280;32029;51.358;5.628;2023-03-26T10:32:05;99879.84;;;13.22;100.00
46303;BME280;32029;51.358;5.628;2023-03-26T10:40:30;99878.44;;;13.38;100.00
46303;BME280;32029;51.358;5.628;2023-03-26T10:51:45;99890.81;;;13.47;98.45
46303;BME280;32029;51.358;5.628;2023-03-26T10:54:34;99879.19;;;13.45;97.62
46303;BME280;32029;51.358;5.628;2023-03-26T10:59:50;99891.69;;;13.66;97.26
46303;BME280;32029;51.358;5.628;2023-03-26T11:02:28;99828.59;;;13.40;97.76
46303;BME280;32029;51.358;5.628;2023-03-26T11:05:02;99888.69;;;13.86;97.58
46303;BME280;32029;51.358;5.628;2023-03-26T11:07:45;99895.78;;;13.94;95.93
46303;BME280;32029;51.358;5.628;2023-03-26T11:10:19;99896.06;;;14.04;95.75
46303;BME280;32029;51.358;5.628;2023-03-26T11:13:07;99870.50;;;13.97;96.10
46303;BME280;32029;51.358;5.628;2023-03-26T11:15:46;99861.16;;;13.98;96.39
46303;BME280;32029;51.358;5.628;2023-03-26T11:21:10;99894.66;;;14.32;94.80
46303;BME280;32029;51.358;5.628;2023-03-26T11:26:49;99904.72;;;14.56;94.40
46303;BME280;32029;51.358;5.628;2023-03-26T11:29:38;99853.72;;;14.29;94.91
46303;BME280;32029;51.358;5.628;2023-03-26T11:32:12;99888.75;;;14.58;95.66
46303;BME280;32029;51.358;5.628;2023-03-26T11:34:51;99910.50;;;14.78;94.17
46303;BME280;32029;51.358;5.628;2023-03-26T11:37:35;99907.53;;;14.80;93.10
46303;BME280;32029;51.358;5.628;2023-03-26T11:40:13;99893.59;;;14.75;93.62
46303;BME280;32029;51.358;5.628;2023-03-26T11:42:42;99844.44;;;14.53;93.25
46303;BME280;32029;51.358;5.628;2023-03-26T11:45:18;99904.31;;;14.94;94.21
46303;BME280;32029;51.358;5.628;2023-03-26T11:48:02;99886.19;;;14.87;93.00
46303;BME280;32029;51.358;5.628;2023-03-26T11:50:32;99850.09;;;14.58;92.07
46303;BME280;32029;51.358;5.628;2023-03-26T11:53:12;99894.81;;;14.79;91.77
46303;BME280;32029;51.358;5.628;2023-03-26T11:55:50;99913.53;;;14.88;91.33
46303;BME280;32029;51.358;5.628;2023-03-26T11:58:26;99899.25;;;14.80;92.73
46303;BME280;32029;51.358;5.628;2023-03-26T12:00:55;99906.56;;;14.86;90.39
46303;BME280;32029;51.358;5.628;2023-03-26T12:03:22;99859.72;;;14.56;91.30
46303;BME280;32029;51.358;5.628;2023-03-26T12:05:51;99924.97;;;14.92;89.88
46303;BME280;32029;51.358;5.628;2023-03-26T12:08:30;99844.41;;;14.41;89.39
46303;BME280;32029;51.358;5.628;2023-03-26T12:11:07;99930.94;;;14.89;89.91
46303;BME280;32029;51.358;5.628;2023-03-26T12:16:11;99919.81;;;14.95;91.34
46303;BME280;32029;51.358;5.628;2023-03-26T12:18:40;99923.03;;;14.92;89.71
46303;BME280;32029;51.358;5.628;2023-03-26T12:21:16;99933.16;;;14.99;89.91
46303;BME280;32029;51.358;5.628;2023-03-26T12:23:56;99922.19;;;14.92;91.07
46303;BME280;32029;51.358;5.628;2023-03-26T12:29:04;99938.06;;;15.08;91.24
46303;BME280;32029;51.358;5.628;2023-03-26T12:34:27;99938.19;;;15.13;91.09
46303;BME280;32029;51.358;5.628;2023-03-26T12:36:57;99951.53;;;15.16;90.98
46303;BME280;32029;51.358;5.628;2023-03-26T12:39:40;99924.97;;;15.04;91.46
46303;BME280;32029;51.358;5.628;2023-03-26T12:42:31;99929.91;;;15.13;91.24
46303;BME280;32029;51.358;5.628;2023-03-26T12:44:58;99952.75;;;15.20;91.27
46303;BME280;32029;51.358;5.628;2023-03-26T12:47:27;99932.06;;;15.11;89.50
46303;BME280;32029;51.358;5.628;2023-03-26T12:49:56;99902.25;;;14.90;90.25
46303;BME280;32029;51.358;5.628;2023-03-26T12:52:41;99951.69;;;15.22;90.72
46303;BME280;32029;51.358;5.628;2023-03-26T12:58:15;99913.00;;;15.10;90.79
46303;BME280;32029;51.358;5.628;2023-03-26T13:12:07;99930.88;;;15.31;89.51
46303;BME280;32029;51.358;5.628;2023-03-26T13:17:26;99966.56;;;15.44;88.16
46303;BME280;32029;51.358;5.628;2023-03-26T13:20:09;99964.44;;;15.46;86.78
46303;BME280;32029;51.358;5.628;2023-03-26T13:22:52;99976.06;;;15.48;86.49
46303;BME280;32029;51.358;5.628;2023-03-26T13:28:14;99978.81;;;15.48;87.97
46303;BME280;32029;51.358;5.628;2023-03-26T13:31:23;99973.56;;;15.47;85.32
46303;BME280;32029;51.358;5.628;2023-03-26T13:34:32;99978.00;;;15.36;85.14
46303;BME280;32029;51.358;5.628;2023-03-26T13:37:06;99976.31;;;15.35;86.78
46303;BME280;32029;51.358;5.628;2023-03-26T13:45:38;99919.50;;;14.74;86.29
46303;BME280;32029;51.358;5.628;2023-03-26T13:48:16;99987.91;;;15.02;87.80
46303;BME280;32029;51.358;5.628;2023-03-26T13:50:55;99990.31;;;14.98;87.47
46303;BME280;32029;51.358;5.628;2023-03-26T13:53:27;99990.63;;;14.90;87.79
46303;BME280;32029;51.358;5.628;2023-03-26T13:55:58;99988.22;;;14.82;87.58
46303;BME280;32029;51.358;5.628;2023-03-26T13:58:33;99973.47;;;14.58;89.37
46303;BME280;32029;51.358;5.628;2023-03-26T14:01:08;99994.69;;;14.76;91.02
46303;BME280;32029;51.358;5.628;2023-03-26T14:06:21;99968.66;;;14.53;90.75
46303;BME280;32029;51.358;5.628;2023-03-26T14:08:55;100006.19;;;14.73;92.32
46303;BME280;32029;51.358;5.628;2023-03-26T14:11:49;100011.25;;;14.76;93.12
46303;BME280;32029;51.358;5.628;2023-03-26T14:17:04;100021.47;;;14.75;93.77
46303;BME280;32029;51.358;5.628;2023-03-26T14:20:09;100018.09;;;14.73;92.99
46303;BME280;32029;51.358;5.628;2023-03-26T14:25:49;100025.94;;;14.58;91.88
46303;BME280;32029;51.358;5.628;2023-03-26T14:31:31;100032.78;;;14.37;92.80
46303;BME280;32029;51.358;5.628;2023-03-26T14:37:19;100033.78;;;14.06;94.40
46303;BME280;32029;51.358;5.628;2023-03-26T14:43:22;100044.56;;;13.89;94.61
46303;BME280;32029;51.358;5.628;2023-03-26T14:49:27;100055.25;;;13.79;93.22
46303;BME280;32029;51.358;5.628;2023-03-26T14:52:09;100053.63;;;13.71;95.25
46303;BME280;32029;51.358;5.628;2023-03-26T14:54:42;100071.38;;;13.82;95.80
46303;BME280;32029;51.358;5.628;2023-03-26T15:03:01;100081.94;;;13.85;95.28
46303;BME280;32029;51.358;5.628;2023-03-26T15:06:24;100077.31;;;13.79;93.85
46303;BME280;32029;51.358;5.628;2023-03-26T15:12:00;100102.28;;;13.34;95.49
46303;BME280;32029;51.358;5.628;2023-03-26T15:23:25;100122.19;;;12.46;97.53
46303;BME280;32029;51.358;5.628;2023-03-26T15:26:26;100141.28;;;12.27;98.35
46303;BME280;32029;51.358;5.628;2023-03-26T15:34:54;100157.41;;;11.97;99.01
46303;BME280;32029;51.358;5.628;2023-03-26T15:37:51;100160.78;;;11.93;99.91
46303;BME280;32029;51.358;5.628;2023-03-26T15:40:35;100154.25;;;11.94;99.79
46303;BME280;32029;51.358;5.628;2023-03-26T15:43:17;100160.38;;;11.96;99.92
46303;BME280;32029;51.358;5.628;2023-03-26T15:49:05;100177.72;;;12.10;99.47
46303;BME280;32029;51.358;5.628;2023-03-26T15:51:44;100191.88;;;12.13;97.25
46303;BME280;32029;51.358;5.628;2023-03-26T15:57:42;100190.81;;;12.14;99.25
46303;BME280;32029;51.358;5.628;2023-03-26T16:00:21;100198.00;;;12.15;97.17
46303;BME280;32029;51.358;5.628;2023-03-26T16:05:52;100208.19;;;12.01;95.56
46303;BME280;32029;51.358;5.628;2023-03-26T16:11:02;100220.44;;;12.06;95.59
46303;BME280;32029;51.358;5.628;2023-03-26T16:16:57;100231.22;;;12.07;95.54
46303;BME280;32029;51.358;5.628;2023-03-26T16:19:34;100233.13;;;12.07;94.12
46303;BME280;32029;51.358;5.628;2023-03-26T16:22:36;100241.38;;;12.00;92.70
46303;BME280;32029;51.358;5.628;2023-03-26T16:25:31;100240.31;;;11.94;92.37
46303;BME280;32029;51.358;5.628;2023-03-26T16:28:29;100251.97;;;11.90;91.49
46303;BME280;32029;51.358;5.628;2023-03-26T16:33:56;100238.13;;;11.63;89.45
46303;BME280;32029;51.358;5.628;2023-03-26T16:36:42;100261.38;;;11.74;88.76
46303;BME280;32029;51.358;5.628;2023-03-26T16:39:23;100286.56;;;11.71;88.16
46303;BME280;32029;51.358;5.628;2023-03-26T16:42:20;100283.38;;;11.67;88.43
46303;BME280;32029;51.358;5.628;2023-03-26T16:45:07;100280.63;;;11.67;88.81
46303;BME280;32029;51.358;5.628;2023-03-26T16:50:28;100293.97;;;11.70;88.13
46303;BME280;32029;51.358;5.628;2023-03-26T16:55:42;100306.66;;;11.71;87.97
46303;BME280;32029;51.358;5.628;2023-03-26T16:58:28;100311.72;;;11.74;89.42
46303;BME280;32029;51.358;5.628;2023-03-26T17:04:03;100329.50;;;11.78;87.95
46303;BME280;32029;51.358;5.628;2023-03-26T17:06:44;100339.22;;;11.81;87.69
46303;BME280;32029;51.358;5.628;2023-03-26T17:09:16;100343.44;;;11.77;86.75
46303;BME280;32029;51.358;5.628;2023-03-26T17:11:59;100344.72;;;11.74;87.79